createdAt,value
2023-05-16T00:01:35.819Z,14.32
2023-05-16T00:03:46.455Z,14.27
2023-05-16T00:05:53.248Z,14.23
2023-05-16T00:07:57.171Z,14.19
2023-05-16T00:10:02.035Z,14.14
2023-05-16T00:12:10.635Z,14.08
2023-05-16T00:14:13.552Z,14.04
2023-05-16T00:16:18.201Z,14.01
2023-05-16T00:18:24.080Z,14.01
2023-05-16T00:20:31.214Z,13.99
2023-05-16T00:22:34.743Z,14.01
2023-05-16T00:24:44.493Z,14.02
2023-05-16T00:26:49.439Z,14.03
2023-05-16T00:28:54.762Z,14.02
2023-05-16T00:30:59.374Z,14.02
2023-05-16T00:33:03.840Z,14.02
2023-05-16T00:35:10.655Z,13.98
2023-05-16T00:37:14.075Z,13.93
2023-05-16T00:39:18.524Z,13.87
2023-05-16T00:41:23.013Z,13.83
2023-05-16T00:43:29.414Z,13.82
2023-05-16T00:45:32.863Z,13.81
2023-05-16T00:47:39.718Z,13.80
2023-05-16T00:49:42.761Z,13.80
2023-05-16T00:51:48.480Z,13.78
2023-05-16T00:53:52.823Z,13.76
2023-05-16T00:55:59.114Z,13.75
2023-05-16T00:58:06.572Z,13.69
2023-05-16T01:00:17.996Z,13.62
2023-05-16T01:02:21.427Z,13.55
2023-05-16T01:04:30.090Z,13.50
2023-05-16T01:06:37.612Z,13.44
2023-05-16T01:08:41.751Z,13.40
2023-05-16T01:11:06.595Z,13.38
2023-05-16T01:13:27.861Z,13.36
2023-05-16T01:15:41.845Z,13.34
2023-05-16T01:18:01.401Z,13.28
2023-05-16T01:20:35.365Z,13.23
2023-05-16T01:22:45.380Z,13.11
2023-05-16T01:25:05.995Z,13.01
2023-05-16T01:27:10.709Z,12.96
2023-05-16T01:29:16.664Z,12.92
2023-05-16T01:31:20.650Z,12.88
2023-05-16T01:33:23.341Z,12.85
2023-05-16T01:35:26.288Z,12.86
2023-05-16T01:37:41.882Z,12.88
2023-05-16T01:39:54.029Z,12.92
2023-05-16T01:42:04.473Z,12.94
2023-05-16T01:44:16.324Z,12.94
2023-05-16T01:46:26.750Z,12.91
2023-05-16T01:48:35.699Z,12.86
2023-05-16T01:50:46.493Z,12.84
2023-05-16T01:53:06.984Z,12.83
2023-05-16T01:55:16.711Z,12.83
2023-05-16T01:57:24.344Z,12.82
2023-05-16T01:59:27.682Z,12.84
2023-05-16T02:01:33.806Z,12.84
2023-05-16T02:03:38.597Z,12.84
2023-05-16T02:05:44.557Z,12.83
2023-05-16T02:07:49.262Z,12.79
2023-05-16T02:09:53.754Z,12.77
2023-05-16T02:11:56.609Z,12.77
2023-05-16T02:14:00.468Z,12.77
2023-05-16T02:16:04.477Z,12.76
2023-05-16T02:18:08.490Z,12.76
2023-05-16T02:20:12.497Z,12.73
2023-05-16T02:22:15.542Z,12.69
2023-05-16T02:24:18.380Z,12.66
2023-05-16T02:26:22.216Z,12.65
2023-05-16T02:28:25.835Z,12.66
2023-05-16T02:30:28.852Z,12.66
2023-05-16T02:32:34.037Z,12.65
2023-05-16T02:34:37.309Z,12.64
2023-05-16T02:36:40.166Z,12.64
2023-05-16T02:38:50.988Z,12.63
2023-05-16T02:40:53.982Z,12.61
2023-05-16T02:42:58.396Z,12.60
2023-05-16T02:45:01.094Z,12.60
2023-05-16T02:47:04.164Z,12.59
2023-05-16T02:49:07.440Z,12.57
2023-05-16T02:51:10.096Z,12.56
2023-05-16T02:53:13.653Z,12.56
2023-05-16T02:55:22.182Z,12.57
2023-05-16T02:57:26.649Z,12.57
2023-05-16T02:59:30.747Z,12.56
2023-05-16T03:01:35.226Z,12.57
2023-05-16T03:03:40.659Z,12.59
2023-05-16T03:05:47.415Z,12.57
2023-05-16T03:07:50.764Z,12.54
2023-05-16T03:09:53.836Z,12.52
2023-05-16T03:11:56.592Z,12.50
2023-05-16T03:14:01.824Z,12.45
2023-05-16T03:16:06.529Z,12.46
2023-05-16T03:18:09.549Z,12.49
2023-05-16T03:20:13.329Z,12.52
2023-05-16T03:22:16.394Z,12.53
2023-05-16T03:24:19.153Z,12.54
2023-05-16T03:26:22.832Z,12.55
2023-05-16T03:28:27.427Z,12.56
2023-05-16T03:30:31.531Z,12.56
2023-05-16T03:32:34.525Z,12.55
2023-05-16T03:34:37.859Z,12.56
2023-05-16T03:36:41.610Z,12.56
2023-05-16T03:38:44.953Z,12.57
2023-05-16T03:40:47.537Z,12.57
2023-05-16T03:42:50.374Z,12.57
2023-05-16T03:44:53.128Z,12.58
2023-05-16T03:46:56.221Z,12.59
2023-05-16T03:49:00.108Z,12.60
2023-05-16T03:51:03.775Z,12.61
2023-05-16T03:53:06.425Z,12.64
2023-05-16T03:55:09.439Z,12.62
2023-05-16T03:57:12.670Z,12.59
2023-05-16T03:59:15.612Z,12.56
2023-05-16T04:01:18.456Z,12.52
2023-05-16T04:03:28.871Z,12.48
2023-05-16T04:05:32.016Z,12.46
2023-05-16T04:07:34.690Z,12.48
2023-05-16T04:09:37.322Z,12.49
2023-05-16T04:11:42.586Z,12.50
2023-05-16T04:13:46.829Z,12.53
2023-05-16T04:15:50.277Z,12.55
2023-05-16T04:17:53.106Z,12.58
2023-05-16T04:19:56.682Z,12.58
2023-05-16T04:21:59.214Z,12.58
2023-05-16T04:24:02.506Z,12.60
2023-05-16T04:26:05.263Z,12.60
2023-05-16T04:28:07.822Z,12.60
2023-05-16T04:30:12.390Z,12.61
2023-05-16T04:32:15.485Z,12.61
2023-05-16T04:34:19.165Z,12.59
2023-05-16T04:36:23.883Z,12.59
2023-05-16T04:38:26.725Z,12.57
2023-05-16T04:40:29.592Z,12.57
2023-05-16T04:42:32.796Z,12.56
2023-05-16T04:44:35.405Z,12.53
2023-05-16T04:46:38.237Z,12.54
2023-05-16T04:48:41.628Z,12.58
2023-05-16T04:50:44.444Z,12.59
2023-05-16T04:52:48.246Z,12.57
2023-05-16T04:54:52.356Z,12.57
2023-05-16T04:56:55.415Z,12.56
2023-05-16T04:58:59.890Z,12.55
2023-05-16T05:01:04.088Z,12.52
2023-05-16T05:03:07.915Z,12.51
2023-05-16T05:05:11.499Z,12.53
2023-05-16T05:07:20.521Z,12.56
2023-05-16T05:09:23.792Z,12.56
2023-05-16T05:11:27.441Z,12.57
2023-05-16T05:13:30.656Z,12.53
2023-05-16T05:15:36.121Z,12.48
2023-05-16T05:17:39.352Z,12.45
2023-05-16T05:19:45.676Z,12.49
2023-05-16T05:21:48.716Z,12.54
2023-05-16T05:23:51.619Z,12.57
2023-05-16T05:25:55.234Z,12.61
2023-05-16T05:27:59.232Z,12.65
2023-05-16T05:30:03.900Z,12.68
2023-05-16T05:32:08.567Z,12.72
2023-05-16T05:34:11.805Z,12.73
2023-05-16T05:36:16.396Z,12.70
2023-05-16T05:38:21.013Z,12.66
2023-05-16T05:40:24.381Z,12.66
2023-05-16T05:42:26.952Z,12.64
2023-05-16T05:44:30.873Z,12.61
2023-05-16T05:46:35.306Z,12.59
2023-05-16T05:48:38.429Z,12.56
2023-05-16T05:50:45.603Z,12.51
2023-05-16T05:52:50.611Z,12.49
2023-05-16T05:54:54.531Z,12.47
2023-05-16T05:56:58.199Z,12.49
2023-05-16T05:59:04.123Z,12.51
2023-05-16T06:01:06.608Z,12.52
2023-05-16T06:03:09.341Z,12.56
2023-05-16T06:05:12.025Z,12.60
2023-05-16T06:07:16.912Z,12.64
2023-05-16T06:09:22.233Z,12.68
2023-05-16T06:11:28.189Z,12.75
2023-05-16T06:13:32.080Z,12.80
2023-05-16T06:15:35.417Z,12.86
2023-05-16T06:17:38.810Z,12.91
2023-05-16T06:19:41.443Z,12.96
2023-05-16T06:21:44.343Z,12.99
2023-05-16T06:23:48.784Z,13.04
2023-05-16T06:25:52.441Z,13.10
2023-05-16T06:27:57.576Z,13.15
2023-05-16T06:30:00.935Z,13.20
2023-05-16T06:32:04.579Z,13.26
2023-05-16T06:34:07.514Z,13.30
2023-05-16T06:36:10.546Z,13.37
2023-05-16T06:38:13.472Z,13.43
2023-05-16T06:40:17.611Z,13.44
2023-05-16T06:42:20.886Z,13.46
2023-05-16T06:44:26.187Z,13.49
2023-05-16T06:46:29.512Z,13.53
2023-05-16T06:48:33.237Z,13.58
2023-05-16T06:50:38.449Z,13.65
2023-05-16T06:52:42.171Z,13.70
2023-05-16T06:54:46.286Z,13.72
2023-05-16T06:56:49.808Z,13.75
2023-05-16T06:58:55.012Z,13.79
2023-05-16T07:00:58.603Z,13.86
2023-05-16T07:03:04.681Z,13.95
2023-05-16T07:05:11.696Z,13.99
2023-05-16T07:07:17.653Z,14.01
2023-05-16T07:09:22.395Z,14.06
2023-05-16T07:11:25.245Z,14.16
2023-05-16T07:13:29.690Z,14.25
2023-05-16T07:15:41.019Z,14.30
2023-05-16T07:17:43.701Z,14.33
2023-05-16T07:19:46.578Z,14.36
2023-05-16T07:21:49.828Z,14.42
2023-05-16T07:23:52.843Z,14.49
2023-05-16T07:25:56.894Z,14.55
2023-05-16T07:28:01.030Z,14.59
2023-05-16T07:30:05.168Z,14.54
2023-05-16T07:32:17.321Z,14.53
2023-05-16T07:34:24.794Z,14.54
2023-05-16T07:36:29.660Z,14.58
2023-05-16T07:38:40.817Z,14.68
2023-05-16T07:40:46.537Z,14.71
2023-05-16T07:42:53.235Z,14.73
2023-05-16T07:45:00.876Z,14.74
2023-05-16T07:47:07.288Z,14.73
2023-05-16T07:49:14.066Z,14.78
2023-05-16T07:51:20.803Z,14.83
2023-05-16T07:53:23.777Z,14.88
2023-05-16T07:55:29.242Z,14.92
2023-05-16T07:57:34.787Z,14.93
2023-05-16T07:59:38.943Z,14.94
2023-05-16T08:01:46.058Z,14.98
2023-05-16T08:03:55.022Z,15.08
2023-05-16T08:05:58.126Z,15.16
2023-05-16T08:08:01.206Z,15.18
2023-05-16T08:10:05.917Z,15.23
2023-05-16T08:12:09.766Z,15.28
2023-05-16T08:14:12.854Z,15.31
2023-05-16T08:16:15.986Z,15.30
2023-05-16T08:18:22.080Z,15.29
2023-05-16T08:20:28.407Z,15.29
2023-05-16T08:22:34.568Z,15.27
2023-05-16T08:24:37.436Z,15.26
2023-05-16T08:26:42.162Z,15.25
2023-05-16T08:28:54.589Z,15.20
2023-05-16T08:30:57.860Z,15.26
2023-05-16T08:33:04.898Z,15.33
2023-05-16T08:35:10.456Z,15.38
2023-05-16T08:37:18.855Z,15.40
2023-05-16T08:39:22.884Z,15.39
2023-05-16T08:41:26.054Z,15.36
2023-05-16T08:43:30.069Z,15.36
2023-05-16T08:45:36.085Z,15.37
2023-05-16T08:47:43.744Z,15.39
2023-05-16T08:49:51.751Z,15.39
2023-05-16T08:51:58.989Z,15.35
2023-05-16T08:54:23.042Z,15.32
2023-05-16T08:56:28.820Z,15.25
2023-05-16T08:58:32.178Z,15.23
2023-05-16T09:00:37.237Z,15.23
2023-05-16T09:02:44.995Z,15.21
2023-05-16T09:04:50.436Z,15.18
2023-05-16T09:06:53.874Z,15.15
2023-05-16T09:08:57.153Z,15.13
2023-05-16T09:11:02.216Z,15.07
2023-05-16T09:13:07.107Z,15.00
2023-05-16T09:15:26.860Z,14.94
2023-05-16T09:17:43.912Z,14.88
2023-05-16T09:19:53.593Z,14.84
2023-05-16T09:21:57.555Z,14.81
2023-05-16T09:24:10.993Z,14.81
2023-05-16T09:26:26.662Z,14.78
2023-05-16T09:28:32.107Z,14.74
2023-05-16T09:30:36.286Z,14.69
2023-05-16T09:32:44.111Z,14.63
2023-05-16T09:34:49.526Z,14.58
2023-05-16T09:36:55.369Z,14.54
2023-05-16T09:39:00.546Z,14.50
2023-05-16T09:41:04.542Z,14.46
2023-05-16T09:43:08.957Z,14.43
2023-05-16T09:45:16.026Z,14.40
2023-05-16T09:47:20.566Z,14.40
2023-05-16T09:49:24.681Z,14.37
2023-05-16T09:51:30.381Z,14.30
2023-05-16T09:53:35.727Z,14.26
2023-05-16T09:55:40.047Z,14.23
2023-05-16T09:57:45.661Z,14.23
2023-05-16T09:59:50.066Z,14.26
2023-05-16T10:01:54.948Z,14.26
2023-05-16T10:04:18.946Z,14.26
2023-05-16T10:06:47.784Z,14.27
2023-05-16T10:09:17.559Z,14.23
2023-05-16T10:11:22.587Z,14.17
2023-05-16T10:13:30.839Z,14.14
2023-05-16T10:15:36.853Z,14.17
2023-05-16T10:17:41.739Z,14.19
2023-05-16T10:19:48.004Z,14.24
2023-05-16T10:22:06.109Z,14.35
2023-05-16T10:24:13.603Z,14.44
2023-05-16T10:26:21.592Z,14.45
2023-05-16T10:28:28.711Z,14.46
2023-05-16T10:30:36.604Z,14.47
2023-05-16T10:32:42.504Z,14.48
2023-05-16T10:35:06.115Z,14.47
2023-05-16T10:37:09.741Z,14.46
2023-05-16T10:39:14.934Z,14.49
2023-05-16T10:41:23.016Z,14.52
2023-05-16T10:43:30.471Z,14.55
2023-05-16T10:45:42.342Z,14.58
2023-05-16T10:47:58.824Z,14.60
2023-05-16T10:50:04.551Z,14.60
2023-05-16T10:52:12.913Z,14.63
2023-05-16T10:54:20.653Z,14.62
2023-05-16T10:56:25.610Z,14.62
2023-05-16T10:58:31.979Z,14.59
2023-05-16T11:00:35.970Z,14.59
2023-05-16T11:02:42.373Z,14.57
2023-05-16T11:04:48.584Z,14.53
2023-05-16T11:06:59.059Z,14.51
2023-05-16T11:09:05.896Z,14.50
2023-05-16T11:11:47.361Z,14.49
2023-05-16T11:14:03.219Z,14.47
2023-05-16T11:16:28.989Z,14.43
2023-05-16T11:18:33.673Z,14.41
2023-05-16T11:20:39.765Z,14.39
2023-05-16T11:22:43.368Z,14.37
2023-05-16T11:25:00.675Z,14.43
2023-05-16T11:27:07.263Z,14.50
2023-05-16T11:29:11.639Z,14.54
2023-05-16T11:31:18.503Z,14.57
2023-05-16T11:33:24.088Z,14.62
2023-05-16T11:35:32.596Z,14.67
2023-05-16T11:37:37.939Z,14.72
2023-05-16T11:39:41.702Z,14.74
2023-05-16T11:41:48.909Z,14.73
2023-05-16T11:43:53.948Z,14.70
2023-05-16T11:46:03.304Z,14.67
2023-05-16T11:48:10.183Z,14.68
2023-05-16T11:50:22.119Z,14.71
2023-05-16T11:52:26.261Z,14.71
2023-05-16T11:54:37.824Z,14.68
2023-05-16T11:56:44.085Z,14.64
2023-05-16T11:58:50.001Z,14.65
2023-05-16T12:00:53.818Z,14.64
2023-05-16T12:03:04.337Z,14.60
2023-05-16T12:05:10.786Z,14.54
2023-05-16T12:07:18.663Z,14.50
2023-05-16T12:09:23.713Z,14.48
2023-05-16T12:11:27.156Z,14.47
2023-05-16T12:13:31.474Z,14.43
2023-05-16T12:15:34.523Z,14.40
2023-05-16T12:17:39.229Z,14.38
2023-05-16T12:19:46.460Z,14.33
2023-05-16T12:21:54.438Z,14.30
2023-05-16T12:24:01.505Z,14.27
2023-05-16T12:26:07.413Z,14.26
2023-05-16T12:28:15.597Z,14.25
2023-05-16T12:30:25.618Z,14.24
2023-05-16T12:32:30.531Z,14.23
2023-05-16T12:34:35.193Z,14.23
2023-05-16T12:36:40.207Z,14.22
2023-05-16T12:38:48.385Z,14.21
2023-05-16T12:40:58.661Z,14.21
2023-05-16T12:43:05.312Z,14.19
2023-05-16T12:45:22.576Z,14.17
2023-05-16T12:47:35.577Z,14.14
2023-05-16T12:49:51.428Z,14.11
2023-05-16T12:51:59.942Z,14.12
2023-05-16T12:54:11.863Z,14.12
2023-05-16T12:56:19.805Z,14.14
2023-05-16T12:58:24.062Z,14.16
2023-05-16T13:00:36.727Z,14.16
2023-05-16T13:02:41.152Z,14.18
2023-05-16T13:04:46.368Z,14.19
2023-05-16T13:06:59.389Z,14.20
2023-05-16T13:09:05.370Z,14.20
2023-05-16T13:11:08.042Z,14.20
2023-05-16T13:13:35.094Z,14.18
2023-05-16T13:15:42.511Z,14.13
2023-05-16T13:17:49.192Z,14.09
2023-05-16T13:19:54.169Z,14.07
2023-05-16T13:21:58.754Z,14.07
2023-05-16T13:24:01.988Z,14.06
2023-05-16T13:26:11.715Z,14.06
2023-05-16T13:28:17.599Z,14.09
2023-05-16T13:30:23.095Z,14.14
2023-05-16T13:32:27.247Z,14.16
2023-05-16T13:34:35.360Z,14.22
2023-05-16T13:36:53.203Z,14.26
2023-05-16T13:39:02.923Z,14.26
2023-05-16T13:41:14.865Z,14.29
2023-05-16T13:43:18.165Z,14.32
2023-05-16T13:45:26.459Z,14.35
2023-05-16T13:47:32.995Z,14.40
2023-05-16T13:49:36.435Z,14.45
2023-05-16T13:51:40.443Z,14.46
2023-05-16T13:53:44.834Z,14.45
2023-05-16T13:55:48.029Z,14.44
2023-05-16T13:57:56.686Z,14.46
2023-05-16T14:02:16.450Z,14.43
2023-05-16T14:04:27.094Z,14.43
2023-05-16T14:06:32.027Z,14.41
2023-05-16T14:08:40.049Z,14.39
2023-05-16T14:10:44.577Z,14.41
2023-05-16T14:12:52.179Z,14.42
2023-05-16T14:14:56.054Z,14.41
2023-05-16T14:17:00.385Z,14.39
2023-05-16T14:19:05.595Z,14.42
2023-05-16T14:21:08.948Z,14.44
2023-05-16T14:23:12.174Z,14.47
2023-05-16T14:25:15.095Z,14.44
2023-05-16T14:27:25.043Z,14.41
2023-05-16T14:29:31.456Z,14.36
2023-05-16T14:31:36.695Z,14.34
2023-05-16T14:33:44.277Z,14.32
2023-05-16T14:35:50.309Z,14.31
2023-05-16T14:37:53.636Z,14.31
2023-05-16T14:39:58.020Z,14.36
2023-05-16T14:42:08.307Z,14.40
2023-05-16T14:44:13.130Z,14.45
2023-05-16T14:46:19.406Z,14.48
2023-05-16T14:48:22.923Z,14.51
2023-05-16T14:50:27.976Z,14.50
2023-05-16T14:52:33.297Z,14.50
2023-05-16T14:54:36.907Z,14.51
2023-05-16T14:56:42.104Z,14.52
2023-05-16T14:58:46.914Z,14.51
2023-05-16T15:00:52.847Z,14.52
2023-05-16T15:02:57.244Z,14.54
2023-05-16T15:05:01.639Z,14.57
2023-05-16T15:07:08.587Z,14.59
2023-05-16T15:09:12.492Z,14.59
2023-05-16T15:11:15.591Z,14.58
2023-05-16T15:13:18.654Z,14.61
2023-05-16T15:15:24.557Z,14.65
2023-05-16T15:17:28.040Z,14.70
2023-05-16T15:19:33.091Z,14.76
2023-05-16T15:21:37.557Z,14.79
2023-05-16T15:23:42.576Z,14.78
2023-05-16T15:25:47.670Z,14.74
2023-05-16T15:27:52.846Z,14.75
2023-05-16T15:30:06.888Z,14.75
2023-05-16T15:32:13.947Z,14.75
2023-05-16T15:34:21.537Z,14.73
2023-05-16T15:36:24.707Z,14.72
2023-05-16T15:38:28.036Z,14.73
2023-05-16T15:40:31.226Z,14.72
2023-05-16T15:42:35.931Z,14.70
2023-05-16T15:44:41.893Z,14.67
2023-05-16T15:46:47.125Z,14.67
2023-05-16T15:48:50.600Z,14.66
2023-05-16T15:50:54.029Z,14.64
2023-05-16T15:53:01.208Z,14.65
2023-05-16T15:55:09.478Z,14.67
2023-05-16T15:57:12.566Z,14.71
2023-05-16T15:59:19.163Z,14.72
2023-05-16T16:01:23.513Z,14.69
2023-05-16T16:03:26.841Z,14.65
2023-05-16T16:05:34.540Z,14.60
2023-05-16T16:07:40.388Z,14.58
2023-05-16T16:09:52.361Z,14.56
2023-05-16T16:11:57.038Z,14.53
2023-05-16T16:14:04.212Z,14.52
2023-05-16T16:16:11.459Z,14.48
2023-05-16T16:18:15.600Z,14.45
2023-05-16T16:20:18.787Z,14.43
2023-05-16T16:22:26.033Z,14.43
2023-05-16T16:24:32.794Z,14.43
2023-05-16T16:26:38.135Z,14.45
2023-05-16T16:28:43.142Z,14.48
2023-05-16T16:30:51.279Z,14.49
2023-05-16T16:33:03.059Z,14.51
2023-05-16T16:35:09.150Z,14.57
2023-05-16T16:37:34.861Z,14.73
2023-05-16T16:39:39.790Z,14.83
2023-05-16T16:41:44.705Z,14.86
2023-05-16T16:43:53.990Z,14.89
2023-05-16T16:45:58.384Z,14.95
2023-05-16T16:48:05.123Z,15.04
2023-05-16T16:50:11.807Z,15.08
2023-05-16T16:52:18.218Z,15.08
2023-05-16T16:54:26.782Z,15.23
2023-05-16T16:56:33.739Z,15.37
2023-05-16T16:58:39.393Z,15.34
2023-05-16T17:00:42.823Z,15.29
2023-05-16T17:02:47.531Z,15.30
2023-05-16T17:04:54.582Z,15.44
2023-05-16T17:06:58.903Z,15.79
2023-05-16T17:09:07.081Z,16.19
2023-05-16T17:11:12.168Z,16.53
2023-05-16T17:13:18.469Z,16.68
2023-05-16T17:15:25.033Z,16.55
2023-05-16T17:17:36.383Z,16.50
2023-05-16T17:19:42.233Z,16.48
2023-05-16T17:21:45.354Z,16.62
2023-05-16T17:23:53.776Z,16.76
2023-05-16T17:25:59.951Z,16.93
2023-05-16T17:28:04.249Z,17.15
2023-05-16T17:30:08.625Z,17.26
2023-05-16T17:32:15.423Z,17.21
2023-05-16T17:34:21.179Z,17.19
2023-05-16T17:36:25.560Z,17.17
2023-05-16T17:38:31.854Z,17.16
2023-05-16T17:40:35.037Z,17.21
2023-05-16T17:42:51.856Z,17.25
2023-05-16T17:44:54.811Z,17.30
2023-05-16T17:47:01.234Z,17.37
2023-05-16T17:49:08.058Z,17.35
2023-05-16T17:51:13.843Z,17.23
2023-05-16T17:53:16.602Z,17.14
2023-05-16T17:55:20.715Z,17.03
2023-05-16T17:57:24.059Z,16.83
2023-05-16T17:59:31.153Z,16.65
2023-05-16T18:01:35.880Z,16.51
2023-05-16T18:03:41.571Z,16.38
2023-05-16T18:05:45.774Z,16.25
2023-05-16T18:07:48.630Z,16.11
2023-05-16T18:09:53.647Z,15.97
2023-05-16T18:11:56.904Z,15.86
2023-05-16T18:14:01.250Z,15.72
2023-05-16T18:16:04.596Z,15.61
2023-05-16T18:18:10.160Z,15.52
2023-05-16T18:20:16.058Z,15.45
2023-05-16T18:22:24.882Z,15.36
2023-05-16T18:24:27.676Z,15.27
2023-05-16T18:26:31.366Z,15.19
2023-05-16T18:28:36.359Z,15.14
2023-05-16T18:30:41.701Z,15.09
2023-05-16T18:32:45.932Z,15.00
2023-05-16T18:34:49.098Z,14.89
2023-05-16T18:36:54.832Z,14.78
2023-05-16T18:39:00.307Z,14.69
2023-05-16T18:41:04.096Z,14.61
2023-05-16T18:43:08.089Z,14.55
2023-05-16T18:45:13.422Z,14.48
2023-05-16T18:47:21.827Z,14.41
2023-05-16T18:49:27.918Z,14.33
2023-05-16T18:51:33.641Z,14.26
2023-05-16T18:53:44.543Z,14.20
2023-05-16T18:55:50.033Z,14.14
2023-05-16T18:57:59.002Z,14.10
2023-05-16T19:00:03.802Z,14.07
2023-05-16T19:02:10.798Z,14.01
2023-05-16T19:04:22.434Z,13.93
2023-05-16T19:06:30.802Z,13.84
2023-05-16T19:08:47.580Z,13.76
2023-05-16T19:10:54.155Z,13.68
2023-05-16T19:13:07.300Z,13.60
2023-05-16T19:15:11.382Z,13.54
2023-05-16T19:17:15.689Z,13.50
2023-05-16T19:19:22.969Z,13.44
2023-05-16T19:21:26.596Z,13.35
2023-05-16T19:23:30.390Z,13.31
2023-05-16T19:25:35.395Z,13.28
2023-05-16T19:27:39.884Z,13.23
2023-05-16T19:29:43.189Z,13.18
2023-05-16T19:31:46.007Z,13.14
2023-05-16T19:33:52.269Z,13.11
2023-05-16T19:36:02.825Z,13.06
2023-05-16T19:38:08.479Z,13.00
2023-05-16T19:40:16.424Z,12.96
2023-05-16T19:42:26.795Z,12.94
2023-05-16T19:44:31.260Z,12.90
2023-05-16T19:46:37.814Z,12.88
2023-05-16T19:48:41.047Z,12.86
2023-05-16T19:50:43.967Z,12.85
2023-05-16T19:52:47.749Z,12.81
2023-05-16T19:54:51.770Z,12.76
2023-05-16T19:57:02.550Z,12.72
2023-05-16T19:59:09.403Z,12.67
2023-05-16T20:01:12.295Z,12.64
2023-05-16T20:03:15.034Z,12.62
2023-05-16T20:05:23.227Z,12.61
2023-05-16T20:07:27.606Z,12.57
2023-05-16T20:09:33.647Z,12.54
2023-05-16T20:11:40.587Z,12.48
2023-05-16T20:13:44.734Z,12.46
2023-05-16T20:15:48.284Z,12.45
2023-05-16T20:17:52.563Z,12.42
2023-05-16T20:19:55.461Z,12.37
2023-05-16T20:21:58.806Z,12.35
2023-05-16T20:24:02.196Z,12.33
2023-05-16T20:26:05.385Z,12.29
2023-05-16T20:28:08.793Z,12.28
2023-05-16T20:30:11.975Z,12.28
2023-05-16T20:32:17.259Z,12.25
2023-05-16T20:34:37.428Z,12.19
2023-05-16T20:36:41.449Z,12.16
2023-05-16T20:38:46.855Z,12.12
2023-05-16T20:40:54.384Z,12.08
2023-05-16T20:42:56.974Z,12.08
2023-05-16T20:45:10.984Z,12.05
2023-05-16T20:47:28.070Z,12.00
2023-05-16T20:49:41.461Z,11.95
2023-05-16T20:51:51.635Z,11.90
2023-05-16T20:53:57.401Z,11.84
2023-05-16T20:56:02.717Z,11.82
2023-05-16T20:58:06.554Z,11.81
2023-05-16T21:00:13.180Z,11.79
2023-05-16T21:02:20.848Z,11.75
2023-05-16T21:04:25.545Z,11.73
2023-05-16T21:06:28.468Z,11.70
2023-05-16T21:08:32.475Z,11.67
2023-05-16T21:10:36.425Z,11.64
2023-05-16T21:12:43.121Z,11.62
2023-05-16T21:14:46.954Z,11.60
2023-05-16T21:16:52.582Z,11.57
2023-05-16T21:18:56.713Z,11.53
2023-05-16T21:21:02.131Z,11.52
2023-05-16T21:23:08.691Z,11.49
2023-05-16T21:25:17.073Z,11.46
2023-05-16T21:27:26.544Z,11.42
2023-05-16T21:29:31.523Z,11.36
2023-05-16T21:31:34.601Z,11.31
2023-05-16T21:33:37.276Z,11.28
2023-05-16T21:35:49.565Z,11.28
2023-05-16T21:37:52.549Z,11.27
2023-05-16T21:39:56.957Z,11.24
2023-05-16T21:42:01.339Z,11.22
2023-05-16T21:44:05.680Z,11.20
2023-05-16T21:46:08.591Z,11.19
2023-05-16T21:48:13.979Z,11.18
2023-05-16T21:50:21.371Z,11.18
2023-05-16T21:52:28.670Z,11.16
2023-05-16T21:54:31.256Z,11.14
2023-05-16T21:56:34.116Z,11.14
2023-05-16T21:58:39.097Z,11.14
2023-05-16T22:00:42.778Z,11.14
2023-05-16T22:02:46.024Z,11.12
2023-05-16T22:04:52.395Z,11.10
2023-05-16T22:06:57.738Z,11.10
2023-05-16T22:09:09.288Z,11.09
2023-05-16T22:11:13.104Z,11.08
2023-05-16T22:13:16.997Z,11.10
2023-05-16T22:15:24.495Z,11.11
2023-05-16T22:17:27.854Z,11.12
2023-05-16T22:19:31.069Z,11.11
2023-05-16T22:21:34.468Z,11.08
2023-05-16T22:23:38.096Z,11.07
2023-05-16T22:25:42.030Z,11.09
2023-05-16T22:27:45.592Z,11.09
2023-05-16T22:29:50.918Z,11.08
2023-05-16T22:31:53.780Z,11.06
2023-05-16T22:34:00.638Z,11.01
2023-05-16T22:36:05.173Z,10.95
2023-05-16T22:38:07.893Z,10.92
2023-05-16T22:40:11.192Z,10.90
2023-05-16T22:42:19.366Z,10.88
2023-05-16T22:44:23.051Z,10.83
2023-05-16T22:46:26.678Z,10.84
2023-05-16T22:48:30.426Z,10.85
2023-05-16T22:50:33.256Z,10.82
2023-05-16T22:52:41.843Z,10.79
2023-05-16T22:54:46.593Z,10.77
2023-05-16T22:56:50.404Z,10.76
2023-05-16T22:58:53.575Z,10.76
2023-05-16T23:00:58.377Z,10.72
2023-05-16T23:03:03.093Z,10.74
2023-05-16T23:05:08.341Z,10.75
2023-05-16T23:07:12.582Z,10.76
2023-05-16T23:09:18.321Z,10.77
2023-05-16T23:11:25.826Z,10.79
2023-05-16T23:13:29.204Z,10.80
2023-05-16T23:15:32.601Z,10.80
2023-05-16T23:17:41.883Z,10.80
2023-05-16T23:19:50.233Z,10.79
2023-05-16T23:21:59.926Z,10.79
2023-05-16T23:24:03.881Z,10.77
2023-05-16T23:26:06.667Z,10.74
2023-05-16T23:28:12.800Z,10.69
2023-05-16T23:30:18.726Z,10.65
2023-05-16T23:32:24.581Z,10.59
2023-05-16T23:34:28.057Z,10.57
2023-05-16T23:36:32.672Z,10.57
2023-05-16T23:38:36.255Z,10.55
2023-05-16T23:40:40.112Z,10.52
2023-05-16T23:42:42.895Z,10.48
2023-05-16T23:44:49.969Z,10.44
2023-05-16T23:46:57.422Z,10.41
2023-05-16T23:49:03.286Z,10.39
2023-05-16T23:51:08.279Z,10.36
2023-05-16T23:53:14.886Z,10.33
2023-05-16T23:55:21.242Z,10.29
2023-05-16T23:57:27.826Z,10.22
2023-05-16T23:59:31.101Z,10.15
